Time;durP1;ratioP1;P1;durP2;ratioP2;P2;SDS_P1;SDS_P2;PMS_P1;PMS_P2;Temp;Humidity;BMP_temperature;BMP_pressure;BME280_temperature;BME280_humidity;BME280_pressure;Samples;Min_cycle;Max_cycle;Signal;HPM_P1;HPM_P2
2024/01/17 00:00:13;;;;;;;5.97;3.60;;;;;;;0.57;49.30;99701.69;674624;29;1501;-88
2024/01/17 00:00:35;;;;;;;6.95;3.40;;;;;;;0.47;49.42;99684.97;675085;29;1213;-89
2024/01/17 00:00:56;;;;;;;5.53;3.30;;;;;;;0.52;49.47;99692.09;672488;29;1399;-88
2024/01/17 00:01:16;;;;;;;5.05;3.10;;;;;;;0.54;49.51;99712.72;669611;29;1626;-89
2024/01/17 00:01:37;;;;;;;4.30;3.10;;;;;;;0.54;49.70;99710.16;672484;29;1254;-89
2024/01/17 00:02:01;;;;;;;4.32;3.08;;;;;;;0.49;49.54;99697.06;672257;29;1468;-89
2024/01/17 00:02:22;;;;;;;5.18;3.20;;;;;;;0.50;49.52;99695.38;672420;29;1207;-88
2024/01/17 00:02:42;;;;;;;3.93;2.87;;;;;;;0.55;49.84;99700.75;672424;29;1200;-89
2024/01/17 00:03:03;;;;;;;2.85;2.65;;;;;;;0.48;49.43;99681.59;672869;29;1222;-88
2024/01/17 00:03:24;;;;;;;3.92;3.10;;;;;;;0.51;50.00;99682.63;675080;29;965;-89
2024/01/17 00:03:44;;;;;;;4.50;3.20;;;;;;;0.58;49.72;99685.50;672573;29;1206;-88
2024/01/17 00:04:05;;;;;;;4.75;3.40;;;;;;;0.60;49.51;99691.59;672688;29;1517;-89
2024/01/17 00:04:27;;;;;;;3.43;3.10;;;;;;;0.55;49.93;99686.25;672452;29;1321;-88
2024/01/17 00:04:50;;;;;;;3.83;3.42;;;;;;;0.52;49.77;99686.97;667305;29;1411;-89
2024/01/17 00:05:11;;;;;;;6.55;3.50;;;;;;;0.55;49.60;99688.81;672227;29;1991;-89
2024/01/17 00:05:31;;;;;;;5.83;3.27;;;;;;;0.53;50.11;99696.41;669949;29;782;-88
2024/01/17 00:05:52;;;;;;;7.00;3.22;;;;;;;0.53;49.91;99682.69;672611;29;909;-89
2024/01/17 00:06:13;;;;;;;4.80;3.42;;;;;;;0.52;50.17;99673.22;671453;29;1439;-88
2024/01/17 00:06:33;;;;;;;6.57;3.90;;;;;;;0.52;49.83;99689.53;672448;29;1407;-88
2024/01/17 00:06:55;;;;;;;6.83;3.63;;;;;;;0.61;50.00;99685.66;674652;29;1163;-89
2024/01/17 00:07:16;;;;;;;6.40;3.28;;;;;;;0.68;49.95;99682.59;674745;29;1476;-89
2024/01/17 00:07:37;;;;;;;5.38;2.80;;;;;;;0.64;49.86;99681.56;669948;29;1184;-89
2024/01/17 00:07:57;;;;;;;4.95;2.97;;;;;;;0.68;49.84;99687.75;670050;29;876;-88
2024/01/17 00:08:18;;;;;;;7.82;3.05;;;;;;;0.77;49.78;99706.16;672346;29;1098;-89
2024/01/17 00:08:38;;;;;;;6.77;2.87;;;;;;;0.81;49.48;99700.38;674146;29;1149;-89
2024/01/17 00:08:59;;;;;;;2.87;2.53;;;;;;;0.71;49.38;99685.31;672282;29;1548;-88
2024/01/17 00:09:20;;;;;;;2.60;2.40;;;;;;;0.70;49.70;99686.13;672401;29;1107;-88
2024/01/17 00:09:40;;;;;;;5.20;2.78;;;;;;;0.65;49.85;99673.06;672320;29;1183;-89
2024/01/17 00:10:01;;;;;;;6.88;3.20;;;;;;;0.67;49.65;99675.72;674316;29;1497;-88
2024/01/17 00:10:22;;;;;;;8.30;3.17;;;;;;;0.71;49.61;99687.03;674786;29;1170;-88
2024/01/17 00:10:43;;;;;;;6.40;3.20;;;;;;;0.67;49.73;99673.13;670078;29;1506;-89
2024/01/17 00:11:03;;;;;;;6.40;2.90;;;;;;;0.67;49.70;99673.13;669375;29;1911;-89
2024/01/17 00:11:24;;;;;;;9.70;3.45;;;;;;;0.64;49.41;99676.44;672346;29;1050;-88
2024/01/17 00:11:45;;;;;;;9.48;3.72;;;;;;;0.64;49.69;99678.09;668637;29;1611;-89
2024/01/17 00:12:06;;;;;;;8.30;3.60;;;;;;;0.62;49.77;99672.91;669537;29;1578;-89
2024/01/17 00:12:26;;;;;;;3.85;3.10;;;;;;;0.62;49.70;99670.34;674698;29;965;-88
2024/01/17 00:12:47;;;;;;;3.40;3.10;;;;;;;0.69;49.75;99692.06;679997;29;1723;-89
2024/01/17 00:13:07;;;;;;;7.43;3.03;;;;;;;0.66;49.68;99679.94;674678;29;1468;-89
2024/01/17 00:13:28;;;;;;;6.85;3.05;;;;;;;0.66;49.77;99679.09;674937;29;1219;-88
2024/01/17 00:13:49;;;;;;;6.40;2.65;;;;;;;0.81;49.78;99695.22;672247;29;1213;-88
2024/01/17 00:14:12;;;;;;;2.88;2.67;;;;;;;0.72;49.85;99679.38;672026;29;1583;-88
2024/01/17 00:14:32;;;;;;;5.75;2.70;;;;;;;0.70;49.41;99672.38;669747;29;1294;-89
2024/01/17 00:14:53;;;;;;;6.88;3.00;;;;;;;0.69;49.59;99675.75;669927;29;1184;-88
2024/01/17 00:15:13;;;;;;;6.90;2.73;;;;;;;0.69;49.24;99676.66;672084;29;1968;-89
2024/01/17 00:15:34;;;;;;;3.40;2.53;;;;;;;0.68;49.43;99682.59;672491;29;1381;-88
2024/01/17 00:15:54;;;;;;;4.70;2.70;;;;;;;0.62;49.93;99677.16;669772;29;1665;-88
2024/01/17 00:16:22;;;;;;;6.07;3.07;;;;;;;0.66;49.44;99685.09;672594;29;1513;-88
2024/01/17 00:16:43;;;;;;;5.45;2.92;;;;;;;0.64;49.69;99675.53;669962;29;854;-88
2024/01/17 00:17:04;;;;;;;3.77;2.77;;;;;;;0.60;49.58;99663.38;671831;29;1477;-88
2024/01/17 00:17:25;;;;;;;4.75;2.83;;;;;;;0.69;49.27;99679.22;669773;29;1294;-88
2024/01/17 00:17:46;;;;;;;5.22;2.63;;;;;;;0.61;49.49;99675.41;672580;29;750;-88
2024/01/17 00:18:07;;;;;;;5.30;2.70;;;;;;;0.62;49.67;99683.19;672940;29;1567;-89
2024/01/17 00:18:28;;;;;;;4.80;2.95;;;;;;;0.64;49.67;99694.41;672372;29;1626;-88
2024/01/17 00:18:48;;;;;;;6.22;3.50;;;;;;;0.55;49.70;99675.06;672425;29;1262;-88
2024/01/17 00:19:10;;;;;;;9.60;3.80;;;;;;;0.58;49.49;99673.53;672175;29;1575;-89
2024/01/17 00:19:31;;;;;;;9.40;3.60;;;;;;;0.60;49.63;99683.91;669761;29;1087;-88
2024/01/17 00:19:51;;;;;;;6.57;3.38;;;;;;;0.58;49.70;99662.38;672450;29;1381;-88
2024/01/17 00:20:13;;;;;;;4.45;3.20;;;;;;;0.63;49.78;99679.81;671959;29;1477;-88
2024/01/17 00:20:33;;;;;;;4.43;3.10;;;;;;;0.68;49.71;99672.34;672441;29;1122;-89
2024/01/17 00:20:54;;;;;;;5.00;3.00;;;;;;;0.56;50.20;99675.16;669859;29;1312;-88
2024/01/17 00:21:15;;;;;;;4.80;3.10;;;;;;;0.62;49.93;99678.06;672010;29;1623;-88
2024/01/17 00:21:37;;;;;;;3.55;3.00;;;;;;;0.64;49.90;99671.28;667300;29;1129;-89
2024/01/17 00:21:57;;;;;;;3.20;2.90;;;;;;;0.64;49.98;99670.41;667463;29;1219;-88
2024/01/17 00:22:18;;;;;;;3.10;2.80;;;;;;;0.72;49.58;99681.06;672118;29;1483;-88
2024/01/17 00:22:39;;;;;;;2.95;2.65;;;;;;;0.75;49.34;99676.06;674999;29;1271;-88
2024/01/17 00:23:00;;;;;;;3.30;2.55;;;;;;;0.75;49.65;99682.09;669607;29;1624;-88
2024/01/17 00:23:21;;;;;;;5.90;2.70;;;;;;;0.69;49.38;99678.34;669855;29;1220;-88
2024/01/17 00:23:41;;;;;;;7.80;2.92;;;;;;;0.72;49.62;99676.81;667354;29;782;-88
2024/01/17 00:24:02;;;;;;;6.05;3.00;;;;;;;0.77;49.56;99688.19;667213;29;1530;-88
2024/01/17 00:24:23;;;;;;;4.27;3.07;;;;;;;0.66;49.61;99659.41;669803;29;1733;-88
2024/01/17 00:24:44;;;;;;;3.37;2.80;;;;;;;0.72;49.20;99676.81;669993;29;909;-88
2024/01/17 00:25:06;;;;;;;3.47;2.80;;;;;;;0.74;49.25;99682.91;669781;29;1238;-88
2024/01/17 00:25:26;;;;;;;4.45;3.03;;;;;;;0.66;49.50;99674.81;672511;29;1313;-89
2024/01/17 00:25:47;;;;;;;4.57;3.20;;;;;;;0.65;49.46;99675.63;672420;29;909;-88
2024/01/17 00:26:07;;;;;;;4.85;3.40;;;;;;;0.69;49.26;99686.03;670696;29;1489;-88
2024/01/17 00:26:28;;;;;;;3.63;3.15;;;;;;;0.63;48.99;99691.75;672514;29;996;-89
2024/01/17 00:26:49;;;;;;;3.60;3.03;;;;;;;0.52;49.27;99679.25;671996;29;1246;-88
2024/01/17 00:27:09;;;;;;;4.10;3.00;;;;;;;0.46;49.62;99681.50;672302;29;1471;-88
2024/01/17 00:27:30;;;;;;;4.82;3.30;;;;;;;0.47;49.49;99669.56;675044;29;1197;-89
2024/01/17 00:27:51;;;;;;;6.30;3.17;;;;;;;0.53;49.63;99678.44;672561;29;994;-88
2024/01/17 00:28:11;;;;;;;5.80;3.17;;;;;;;0.60;49.78;99681.34;668570;29;1519;-89
2024/01/17 00:28:32;;;;;;;5.60;2.70;;;;;;;0.64;49.53;99690.94;674992;29;871;-89
2024/01/17 00:28:52;;;;;;;3.50;2.60;;;;;;;0.58;49.73;99676.13;675100;29;811;-89
2024/01/17 00:29:13;;;;;;;2.67;2.47;;;;;;;0.57;49.54;99673.47;672198;29;1211;-88
2024/01/17 00:29:34;;;;;;;2.70;2.50;;;;;;;0.61;49.54;99680.53;672439;29;757;-88
2024/01/17 00:29:59;;;;;;;2.92;2.70;;;;;;;0.63;49.52;99678.91;675012;29;1228;-88
2024/01/17 00:30:20;;;;;;;4.63;2.60;;;;;;;0.60;49.28;99676.19;672285;29;1119;-88
2024/01/17 00:30:41;;;;;;;5.55;2.80;;;;;;;0.55;49.17;99675.97;669906;29;1211;-88
2024/01/17 00:31:02;;;;;;;5.18;2.65;;;;;;;0.63;49.29;99686.63;672104;29;1625;-88
2024/01/17 00:31:23;;;;;;;4.63;2.88;;;;;;;0.63;49.11;99682.38;675052;29;1088;-89
2024/01/17 00:31:44;;;;;;;4.50;3.13;;;;;;;0.50;49.09;99673.16;672451;29;1281;-89
2024/01/17 00:32:05;;;;;;;4.40;3.25;;;;;;;0.48;49.30;99672.19;670287;29;1617;-88
2024/01/17 00:32:26;;;;;;;8.38;3.45;;;;;;;0.41;49.11;99669.25;674830;29;1190;-88
2024/01/17 00:32:46;;;;;;;9.15;3.47;;;;;;;0.44;49.51;99682.22;674982;29;1071;-88
2024/01/17 00:33:07;;;;;;;8.70;3.50;;;;;;;0.43;49.47;99676.22;669544;29;1732;-89
2024/01/17 00:33:30;;;;;;;4.03;3.17;;;;;;;0.40;49.18;99670.91;667307;29;1184;-88
2024/01/17 00:33:51;;;;;;;3.22;2.92;;;;;;;0.43;49.00;99676.22;672368;29;1392;-89
2024/01/17 00:34:11;;;;;;;3.90;2.80;;;;;;;0.37;49.55;99670.78;672192;29;1119;-88
2024/01/17 00:34:32;;;;;;;3.83;2.67;;;;;;;0.42;49.15;99679.59;672547;29;755;-89
2024/01/17 00:34:53;;;;;;;4.35;2.80;;;;;;;0.43;49.00;99676.22;672520;29;1277;-88
2024/01/17 00:35:13;;;;;;;3.60;2.80;;;;;;;0.35;48.97;99664.69;671289;29;1554;-88
2024/01/17 00:35:34;;;;;;;5.25;2.67;;;;;;;0.35;49.60;99672.38;674977;29;1180;-88
2024/01/17 00:35:55;;;;;;;6.70;3.03;;;;;;;0.24;49.44;99665.00;677713;29;812;-88
2024/01/17 00:36:16;;;;;;;5.95;3.10;;;;;;;0.25;49.38;99666.75;675167;29;1532;-88
2024/01/17 00:36:37;;;;;;;4.15;2.97;;;;;;;0.22;49.68;99669.16;674921;29;1244;-88
2024/01/17 00:36:58;;;;;;;2.92;2.50;;;;;;;0.23;49.75;99668.38;668842;29;1596;-88
2024/01/17 00:37:19;;;;;;;4.45;2.92;;;;;;;0.22;49.33;99658.00;671581;29;1594;-88
2024/01/17 00:37:40;;;;;;;12.07;3.38;;;;;;;0.24;49.66;99672.69;672350;29;1219;-89
2024/01/17 00:38:00;;;;;;;13.35;3.63;;;;;;;0.24;49.85;99665.00;669532;29;1539;-88
2024/01/17 00:38:21;;;;;;;12.30;3.40;;;;;;;0.29;49.94;99665.22;672344;29;1015;-88
2024/01/17 00:38:41;;;;;;;4.50;2.80;;;;;;;0.32;49.70;99667.06;669715;29;1429;-88
2024/01/17 00:39:02;;;;;;;2.92;2.63;;;;;;;0.40;49.84;99676.06;671958;29;1645;-88
2024/01/17 00:39:23;;;;;;;2.70;2.50;;;;;;;0.36;49.71;99666.44;669797;29;1301;-89
2024/01/17 00:39:43;;;;;;;2.70;2.50;;;;;;;0.39;49.63;99664.91;667353;29;886;-88
2024/01/17 00:40:04;;;;;;;4.78;2.65;;;;;;;0.36;49.52;99658.75;672637;29;1525;-88
2024/01/17 00:40:27;;;;;;;4.32;2.67;;;;;;;0.49;49.63;99676.50;672460;29;996;-88
2024/01/17 00:40:48;;;;;;;5.07;2.63;;;;;;;0.49;49.43;99670.53;669183;29;1377;-88
2024/01/17 00:41:08;;;;;;;3.30;2.80;;;;;;;0.38;49.40;99654.56;668062;29;1640;-88
2024/01/17 00:41:29;;;;;;;3.47;2.90;;;;;;;0.35;49.58;99652.72;672250;29;1266;-88
2024/01/17 00:41:50;;;;;;;5.70;3.17;;;;;;;0.36;49.07;99661.31;675092;29;860;-88
2024/01/17 00:42:11;;;;;;;5.32;2.90;;;;;;;0.33;49.52;99659.47;671966;29;1309;-89
2024/01/17 00:42:31;;;;;;;5.07;2.67;;;;;;;0.35;49.63;99657.84;672305;29;1259;-87
2024/01/17 00:42:52;;;;;;;2.78;2.47;;;;;;;0.33;49.53;99654.34;672395;29;793;-88
2024/01/17 00:43:13;;;;;;;2.67;2.42;;;;;;;0.38;49.29;99672.53;671671;29;1505;-88
2024/01/17 00:43:33;;;;;;;4.43;2.77;;;;;;;0.30;49.44;99658.44;667756;29;1152;-89
2024/01/17 00:43:54;;;;;;;5.03;2.80;;;;;;;0.31;49.63;99663.66;672486;29;1166;-89
2024/01/17 00:44:17;;;;;;;5.45;2.92;;;;;;;0.25;49.10;99661.63;671784;29;1799;-89
2024/01/17 00:44:42;;;;;;;5.10;3.03;;;;;;;0.17;49.30;99657.78;667374;29;1272;-88
2024/01/17 00:45:06;;;;;;;3.92;2.88;;;;;;;0.23;49.49;99663.22;669226;29;1518;-88
2024/01/17 00:45:26;;;;;;;2.83;2.63;;;;;;;0.18;49.50;99649.28;669852;29;1064;-88
2024/01/17 00:45:47;;;;;;;2.60;2.40;;;;;;;0.24;49.47;99662.44;672344;29;1263;-89
2024/01/17 00:46:08;;;;;;;3.63;2.70;;;;;;;0.28;49.82;99676.31;673110;29;1552;-88
2024/01/17 00:46:28;;;;;;;4.27;3.00;;;;;;;0.13;49.49;99655.88;672416;29;1091;-88
2024/01/17 00:46:49;;;;;;;4.67;3.13;;;;;;;0.21;49.79;99657.16;669247;29;1179;-88
2024/01/17 00:47:10;;;;;;;3.38;2.85;;;;;;;0.22;49.76;99658.00;669606;29;1604;-88
2024/01/17 00:47:31;;;;;;;2.70;2.50;;;;;;;0.18;49.48;99659.53;672151;29;1384;-88
2024/01/17 00:47:51;;;;;;;2.60;2.40;;;;;;;0.16;49.48;99644.88;672384;29;1281;-88
2024/01/17 00:48:13;;;;;;;2.50;2.30;;;;;;;0.20;49.73;99652.81;672121;29;1496;-88
2024/01/17 00:48:34;;;;;;;2.58;2.38;;;;;;;0.23;49.70;99662.38;672433;29;1269;-88
2024/01/17 00:48:54;;;;;;;4.37;2.80;;;;;;;0.25;49.64;99666.75;672362;29;948;-88
2024/01/17 00:49:15;;;;;;;6.60;2.90;;;;;;;0.25;49.78;99648.78;672148;29;1478;-88
2024/01/17 00:49:39;;;;;;;6.82;3.05;;;;;;;0.23;49.59;99646.97;674849;29;1781;-88
2024/01/17 00:50:00;;;;;;;6.55;3.40;;;;;;;0.28;49.50;99657.47;674906;29;1326;-89
2024/01/17 00:50:21;;;;;;;5.80;3.28;;;;;;;0.25;49.73;99653.91;672338;29;1150;-87
2024/01/17 00:50:42;;;;;;;5.85;3.40;;;;;;;0.33;49.75;99661.13;672353;29;1440;-88
2024/01/17 00:51:03;;;;;;;3.73;2.93;;;;;;;0.32;49.65;99656.81;669729;29;1919;-88
2024/01/17 00:51:24;;;;;;;4.45;3.17;;;;;;;0.20;49.95;99637.44;669749;29;1271;-88
2024/01/17 00:51:45;;;;;;;4.00;2.80;;;;;;;0.27;50.01;99643.75;672172;29;1685;-88
2024/01/17 00:52:06;;;;;;;4.23;3.20;;;;;;;0.31;49.69;99648.25;669634;29;1495;-88
2024/01/17 00:52:27;;;;;;;3.78;3.10;;;;;;;0.37;49.68;99650.25;672411;29;1364;-88
2024/01/17 00:52:48;;;;;;;5.88;3.40;;;;;;;0.36;49.82;99649.34;672436;29;1175;-88
2024/01/17 00:53:08;;;;;;;6.67;3.37;;;;;;;0.33;49.52;99643.16;667141;29;1504;-89
2024/01/17 00:53:29;;;;;;;6.33;3.17;;;;;;;0.41;49.56;99653.84;669631;29;1683;-88
2024/01/17 00:53:51;;;;;;;3.17;2.87;;;;;;;0.37;49.43;99658.81;677487;29;1422;-88
2024/01/17 00:54:12;;;;;;;3.42;3.13;;;;;;;0.26;49.40;99647.13;674520;29;1465;-88
2024/01/17 00:54:33;;;;;;;3.47;3.17;;;;;;;0.22;49.82;99648.66;672236;29;1421;-87
2024/01/17 00:54:53;;;;;;;4.30;3.00;;;;;;;0.34;49.77;99655.19;672284;29;1304;-88
2024/01/17 00:55:17;;;;;;;4.60;2.67;;;;;;;0.31;49.74;99647.34;677113;29;1483;-88
2024/01/17 00:55:37;;;;;;;7.15;3.03;;;;;;;0.34;49.37;99655.19;677663;29;828;-89
2024/01/17 00:55:58;;;;;;;9.30;3.10;;;;;;;0.31;49.62;99649.91;677489;29;1336;-89
2024/01/17 00:56:19;;;;;;;8.93;3.10;;;;;;;0.36;49.33;99659.59;677234;29;1537;-88
2024/01/17 00:56:39;;;;;;;7.32;2.90;;;;;;;0.37;49.92;99665.63;669787;29;1287;-88
2024/01/17 00:57:00;;;;;;;3.45;2.67;;;;;;;0.34;49.73;99653.53;671502;29;848;-89
2024/01/17 00:57:21;;;;;;;3.00;2.70;;;;;;;0.42;49.80;99659.06;669895;29;1113;-87
2024/01/17 00:57:45;;;;;;;3.17;2.45;;;;;;;0.42;49.58;99663.31;672379;29;1393;-88
2024/01/17 00:58:05;;;;;;;3.28;2.55;;;;;;;0.39;49.56;99653.75;677398;29;1272;-88
2024/01/17 00:58:27;;;;;;;3.30;2.60;;;;;;;0.36;49.76;99648.47;672415;29;959;-89
2024/01/17 00:58:48;;;;;;;3.03;2.72;;;;;;;0.41;49.66;99657.28;675055;29;1249;-89
2024/01/17 00:59:09;;;;;;;5.20;2.70;;;;;;;0.35;49.94;99646.72;669585;29;1483;-89
2024/01/17 01:04:23;;;;;;;3.03;2.72;;;;;;;0.43;49.43;99652.22;677831;29;693;-88
2024/01/17 01:04:44;;;;;;;4.30;2.60;;;;;;;0.45;49.65;99648.94;677606;29;828;-89
2024/01/17 01:05:05;;;;;;;3.90;2.60;;;;;;;0.43;49.57;99629.13;677626;29;1462;-89
2024/01/17 01:05:25;;;;;;;3.77;2.50;;;;;;;0.40;49.57;99627.28;674987;29;944;-88
2024/01/17 01:05:46;;;;;;;3.40;2.60;;;;;;;0.45;49.57;99633.53;674975;29;793;-88
2024/01/17 01:06:07;;;;;;;3.40;2.90;;;;;;;0.42;49.70;99628.25;672133;29;1219;-89
2024/01/17 01:06:27;;;;;;;4.45;3.40;;;;;;;0.40;49.59;99634.97;674803;29;1168;-88
2024/01/17 01:07:12;;;;;;;4.15;3.40;;;;;;;0.47;49.42;99642.19;674389;29;1303;-88
2024/01/17 01:07:33;;;;;;;3.38;2.88;;;;;;;0.33;49.62;99623.53;674924;29;1263;-88
2024/01/17 01:07:54;;;;;;;3.40;3.10;;;;;;;0.37;49.45;99633.13;673671;29;1606;-88
2024/01/17 01:08:14;;;;;;;3.60;3.25;;;;;;;0.32;49.50;99618.31;671904;29;1795;-88
2024/01/17 01:08:35;;;;;;;3.57;3.27;;;;;;;0.37;49.18;99627.13;677599;29;773;-88
2024/01/17 01:08:55;;;;;;;3.13;2.92;;;;;;;0.38;49.57;99634.03;677545;29;1071;-88
2024/01/17 01:09:16;;;;;;;2.72;2.53;;;;;;;0.35;49.59;99631.31;671959;29;1565;-88
2024/01/17 01:09:37;;;;;;;2.80;2.50;;;;;;;0.34;49.11;99629.53;677552;29;1188;-88
2024/01/17 01:09:57;;;;;;;4.70;3.00;;;;;;;0.28;49.60;99631.81;674207;29;1327;-89
2024/01/17 01:10:18;;;;;;;6.22;3.10;;;;;;;0.30;49.72;99632.75;674130;29;1257;-88
2024/01/17 01:10:39;;;;;;;5.83;2.90;;;;;;;0.33;49.63;99625.19;669829;29;940;-89
2024/01/17 01:10:59;;;;;;;4.10;2.77;;;;;;;0.35;49.38;99626.19;672225;29;1269;-88
2024/01/17 01:11:20;;;;;;;3.17;2.85;;;;;;;0.23;49.61;99606.78;672031;29;1984;-88
2024/01/17 01:11:43;;;;;;;3.40;3.10;;;;;;;0.25;49.62;99618.00;672314;29;836;-89
2024/01/17 01:12:04;;;;;;;3.22;2.97;;;;;;;0.31;49.73;99627.72;672152;29;1826;-88
2024/01/17 01:12:25;;;;;;;4.28;2.85;;;;;;;0.30;49.46;99617.38;674365;29;1058;-88
2024/01/17 01:12:46;;;;;;;4.32;2.70;;;;;;;0.22;49.21;99602.47;674916;29;1314;-88
2024/01/17 01:13:07;;;;;;;6.55;3.20;;;;;;;0.22;49.56;99604.13;670112;29;1501;-88
2024/01/17 01:13:28;;;;;;;4.60;3.10;;;;;;;0.19;49.45;99601.41;674836;29;1361;-88
2024/01/17 01:13:48;;;;;;;4.20;2.77;;;;;;;0.19;49.44;99599.75;677481;29;1166;-88
2024/01/17 01:14:09;;;;;;;2.55;2.35;;;;;;;0.17;49.66;99606.47;672600;29;1234;-88
2024/01/17 01:14:30;;;;;;;2.97;2.65;;;;;;;0.22;49.54;99622.97;674683;29;1491;-89
2024/01/17 01:14:50;;;;;;;3.53;2.92;;;;;;;0.13;49.56;99604.56;674763;29;1165;-88
2024/01/17 01:15:11;;;;;;;4.57;3.23;;;;;;;0.12;49.51;99597.66;671949;29;1487;-88
2024/01/17 01:15:31;;;;;;;4.40;3.10;;;;;;;0.16;49.42;99606.41;667318;29;857;-87
2024/01/17 01:15:52;;;;;;;3.53;3.10;;;;;;;0.10;49.42;99599.25;667190;29;1177;-89
2024/01/17 01:16:13;;;;;;;3.20;2.90;;;;;;;0.20;49.48;99616.91;670964;29;1129;-88
2024/01/17 01:16:33;;;;;;;3.10;2.83;;;;;;;0.09;49.51;99594.94;672291;29;1317;-88
2024/01/17 01:16:54;;;;;;;3.30;3.00;;;;;;;0.07;49.42;99601.66;669325;29;1293;-89
2024/01/17 01:17:14;;;;;;;3.20;2.90;;;;;;;0.08;49.58;99598.31;669500;29;1557;-89
2024/01/17 01:17:35;;;;;;;3.20;2.90;;;;;;;0.07;49.37;99599.09;669914;29;1278;-88
2024/01/17 01:17:56;;;;;;;3.50;2.70;;;;;;;0.03;49.51;99597.19;670460;29;1053;-88
2024/01/17 01:18:16;;;;;;;3.63;2.95;;;;;;;0.04;49.85;99606.66;674572;29;1530;-87
2024/01/17 01:18:37;;;;;;;3.33;2.80;;;;;;;0.00;49.88;99592.78;672298;29;1277;-88
2024/01/17 01:18:57;;;;;;;3.72;2.97;;;;;;;-0.01;49.64;99591.03;669888;29;836;-88
2024/01/17 01:19:18;;;;;;;6.28;3.10;;;;;;;0.03;49.69;99598.06;669700;29;1399;-89
2024/01/17 01:19:38;;;;;;;6.20;3.00;;;;;;;0.03;49.85;99595.50;672895;29;1226;-88
2024/01/17 01:19:59;;;;;;;5.85;3.05;;;;;;;0.01;49.74;99580.81;672376;29;865;-87
2024/01/17 01:20:20;;;;;;;4.02;2.96;;;;;;;0.02;49.77;99585.16;674667;29;1556;-88
2024/01/17 01:20:41;;;;;;;3.73;2.73;;;;;;;0.09;49.81;99600.06;674855;29;1170;-88
2024/01/17 01:21:02;;;;;;;3.97;2.70;;;;;;;-0.02;49.83;99590.13;669265;29;1544;-88
2024/01/17 01:21:23;;;;;;;3.53;2.95;;;;;;;0.01;49.67;99593.66;672278;29;1334;-89
2024/01/17 01:21:43;;;;;;;6.00;3.30;;;;;;;0.01;49.51;99598.78;669772;29;1205;-88
2024/01/17 01:22:04;;;;;;;7.03;3.17;;;;;;;-0.11;49.86;99594.78;669775;29;1569;-87
2024/01/17 01:22:25;;;;;;;6.07;2.65;;;;;;;-0.09;49.89;99598.31;669756;29;1288;-88
2024/01/17 01:22:46;;;;;;;5.32;2.70;;;;;;;-0.02;49.87;99594.38;667506;29;884;-89
2024/01/17 01:23:07;;;;;;;4.50;2.70;;;;;;;-0.04;49.80;99593.41;670235;29;1543;-88
2024/01/17 01:23:27;;;;;;;6.50;3.30;;;;;;;0.03;49.87;99597.19;670024;29;1198;-88
2024/01/17 01:23:48;;;;;;;8.45;3.15;;;;;;;0.03;50.00;99602.34;669931;29;795;-88
2024/01/17 01:24:08;;;;;;;8.70;3.42;;;;;;;0.01;49.79;99594.56;666589;29;1192;-88
2024/01/17 01:24:29;;;;;;;4.60;3.00;;;;;;;0.01;49.87;99589.41;668520;29;1001;-88
2024/01/17 01:24:50;;;;;;;4.00;3.10;;;;;;;0.01;49.51;99585.97;669931;29;1253;-89
2024/01/17 01:25:10;;;;;;;3.60;2.80;;;;;;;0.06;49.84;99590.50;673418;29;1516;-88
2024/01/17 01:25:31;;;;;;;3.55;2.63;;;;;;;0.01;49.74;99579.16;677560;29;1170;-89
2024/01/17 01:25:51;;;;;;;6.20;2.70;;;;;;;0.08;49.77;99599.19;675002;29;1243;-89
2024/01/17 01:26:14;;;;;;;6.07;2.60;;;;;;;0.02;49.53;99592.84;675331;29;1186;-89
2024/01/17 01:26:35;;;;;;;7.82;3.30;;;;;;;-0.03;49.42;99578.13;672389;29;1441;-88
2024/01/17 01:26:56;;;;;;;5.28;3.33;;;;;;;0.04;49.75;99593.84;674597;29;907;-88
2024/01/17 01:27:16;;;;;;;4.10;2.97;;;;;;;-0.00;49.64;99584.19;676588;29;1680;-89
2024/01/17 01:27:37;;;;;;;5.87;2.80;;;;;;;-0.07;49.60;99578.75;672100;29;1199;-89
2024/01/17 01:27:58;;;;;;;5.10;2.70;;;;;;;-0.05;49.71;99586.53;669873;29;785;-88
2024/01/17 01:28:18;;;;;;;5.38;2.70;;;;;;;0.02;49.50;99590.28;671682;29;1537;-88
2024/01/17 01:28:39;;;;;;;2.40;2.20;;;;;;;-0.08;49.65;99573.56;670013;29;754;-88
2024/01/17 01:29:00;;;;;;;2.78;2.53;;;;;;;-0.03;49.67;99588.38;669960;29;1220;-88
2024/01/17 01:29:20;;;;;;;3.20;2.90;;;;;;;-0.11;49.76;99574.28;672420;29;1466;-88
2024/01/17 01:29:41;;;;;;;3.83;2.70;;;;;;;-0.18;49.76;99560.25;672438;29;1168;-89
2024/01/17 01:30:04;;;;;;;3.40;2.70;;;;;;;-0.16;49.89;99575.72;671922;29;1564;-88
2024/01/17 01:30:25;;;;;;;4.40;2.90;;;;;;;-0.08;49.71;99584.69;669721;29;1411;-89
2024/01/17 01:30:45;;;;;;;4.30;3.17;;;;;;;-0.08;49.85;99579.56;672495;29;1271;-88
2024/01/17 01:31:06;;;;;;;3.63;2.63;;;;;;;0.00;49.49;99590.22;674868;29;1986;-89
2024/01/17 01:31:27;;;;;;;3.42;2.72;;;;;;;-0.08;49.86;99579.56;674982;29;1384;-88
2024/01/17 01:31:48;;;;;;;3.00;2.70;;;;;;;-0.09;49.78;99574.38;674938;29;1147;-88
2024/01/17 01:32:08;;;;;;;3.70;2.77;;;;;;;-0.07;49.94;99583.88;674930;29;1461;-88
2024/01/17 01:32:29;;;;;;;2.78;2.47;;;;;;;-0.05;49.98;99577.16;669778;29;1299;-89
2024/01/17 01:32:50;;;;;;;2.70;2.50;;;;;;;-0.04;49.76;99576.34;669974;29;1214;-88
2024/01/17 01:33:10;;;;;;;2.92;2.65;;;;;;;-0.01;49.92;99588.47;673222;29;1502;-89
2024/01/17 01:33:31;;;;;;;4.27;2.70;;;;;;;-0.08;49.77;99569.28;672420;29;1230;-88
2024/01/17 01:33:52;;;;;;;4.70;2.80;;;;;;;-0.04;49.70;99584.06;669939;29;1057;-88
2024/01/17 01:34:12;;;;;;;3.42;2.60;;;;;;;-0.10;49.82;99575.13;674553;29;1498;-89
2024/01/17 01:36:24;;;;;;;3.70;2.50;;;;;;;0.14;49.95;99590.03;674906;29;1015;-89
2024/01/17 01:36:45;;;;;;;2.42;2.22;;;;;;;0.12;49.83;99577.16;677349;29;1317;-88
2024/01/17 01:37:05;;;;;;;2.47;2.30;;;;;;;0.06;49.46;99564.00;674791;29;1569;-88
2024/01/17 01:37:26;;;;;;;2.50;2.30;;;;;;;0.09;49.79;99576.97;671450;29;1435;-88
2024/01/17 01:37:47;;;;;;;3.22;2.80;;;;;;;0.14;49.78;99580.66;672575;29;800;-88
2024/01/17 01:38:07;;;;;;;4.20;2.90;;;;;;;0.09;49.51;99577.88;673715;29;1572;-88
2024/01/17 01:38:28;;;;;;;3.78;2.80;;;;;;;0.06;49.58;99569.13;669864;29;1447;-88
2024/01/17 01:38:48;;;;;;;2.97;2.67;;;;;;;0.04;49.81;99563.03;669738;29;2623;-87
2024/01/17 01:39:09;;;;;;;3.40;2.90;;;;;;;0.05;49.44;99569.94;669234;29;1558;-88
2024/01/17 01:39:30;;;;;;;4.68;3.20;;;;;;;0.11;49.52;99577.94;669881;29;1131;-88
2024/01/17 01:39:50;;;;;;;4.43;3.10;;;;;;;0.11;49.56;99570.25;672602;29;1904;-88
2024/01/17 01:40:11;;;;;;;3.93;2.90;;;;;;;0.09;49.33;99556.44;669762;29;1502;-89
2024/01/17 01:40:32;;;;;;;3.42;2.83;;;;;;;0.06;49.36;99561.44;670732;29;1389;-88
2024/01/17 01:40:53;;;;;;;3.07;2.67;;;;;;;0.02;49.35;99564.63;672728;29;1222;-89
2024/01/17 01:41:13;;;;;;;5.38;2.63;;;;;;;0.10;49.44;99574.50;672298;29;1509;-87
2024/01/17 01:41:34;;;;;;;6.20;2.78;;;;;;;0.06;49.45;99566.56;672610;29;1281;-89
2024/01/17 01:41:55;;;;;;;9.50;3.27;;;;;;;-0.02;49.65;99554.22;674667;29;1185;-88
2024/01/17 01:42:16;;;;;;;7.90;3.35;;;;;;;-0.02;49.34;99561.91;669461;29;1619;-89
2024/01/17 01:42:36;;;;;;;5.43;2.70;;;;;;;0.04;49.57;99568.19;672400;29;1311;-89
2024/01/17 01:43:00;;;;;;;3.92;2.50;;;;;;;0.07;49.43;99569.22;667610;29;1259;-88
2024/01/17 01:43:22;;;;;;;3.42;2.38;;;;;;;-0.00;49.70;99563.69;670615;29;1630;-88
2024/01/17 01:43:43;;;;;;;8.85;2.60;;;;;;;-0.04;49.51;99558.41;670044;29;1102;-88
2024/01/17 01:44:05;;;;;;;9.20;2.30;;;;;;;-0.06;49.48;99549.72;673024;29;1424;-88
2024/01/17 01:44:25;;;;;;;9.40;2.40;;;;;;;0.05;49.50;99569.94;672735;29;1354;-89
2024/01/17 01:44:46;;;;;;;3.47;2.30;;;;;;;-0.01;49.50;99552.56;677874;29;766;-88
2024/01/17 01:45:07;;;;;;;3.45;2.90;;;;;;;-0.01;49.93;99557.69;674812;29;1583;-88
2024/01/17 01:45:27;;;;;;;3.00;2.80;;;;;;;-0.04;49.62;99544.69;672614;29;1116;-88
2024/01/17 01:46:03;;;;;;;2.80;2.60;;;;;;;0.01;50.06;99574.03;670047;29;789;-89
2024/01/17 01:46:27;;;;;;;6.50;2.30;;;;;;;-0.06;49.81;99547.16;674698;29;1616;-88
2024/01/17 01:46:49;;;;;;;6.72;2.70;;;;;;;-0.02;49.73;99546.53;669333;29;1689;-88
2024/01/17 01:47:10;;;;;;;6.50;2.50;;;;;;;0.03;49.60;99551.03;670248;29;1007;-87
2024/01/17 01:47:30;;;;;;;2.75;2.50;;;;;;;0.05;49.81;99546.84;669709;29;1209;-88
2024/01/17 01:47:51;;;;;;;3.45;2.45;;;;;;;0.08;49.84;99554.69;671506;29;963;-89
2024/01/17 01:48:12;;;;;;;4.70;2.70;;;;;;;0.02;49.67;99544.13;668473;29;1265;-88
2024/01/17 01:48:33;;;;;;;4.60;2.53;;;;;;;0.05;49.54;99552.84;672272;29;754;-88
2024/01/17 01:48:54;;;;;;;3.65;2.45;;;;;;;0.17;49.61;99562.84;672166;29;1057;-89
2024/01/17 01:49:16;;;;;;;4.60;2.42;;;;;;;0.15;49.78;99564.47;677228;29;1737;-89
2024/01/17 01:49:37;;;;;;;6.30;2.90;;;;;;;0.11;49.81;99560.00;674795;29;1271;-89